sensor_id;sensor_type;location;lat;lon;timestamp;P1;durP1;ratioP1;P2;durP2;ratioP2
41221;SDS011;26952;42.884;23.918;2022-08-03T00:01:02;33.33;;;31.52;;
41221;SDS011;26952;42.884;23.918;2022-08-03T00:03:27;33.38;;;31.38;;
41221;SDS011;26952;42.884;23.918;2022-08-03T00:05:52;26.88;;;25.42;;
41221;SDS011;26952;42.884;23.918;2022-08-03T00:08:18;26.60;;;25.25;;
41221;SDS011;26952;42.884;23.918;2022-08-03T00:10:43;30.45;;;28.80;;
41221;SDS011;26952;42.884;23.918;2022-08-03T00:13:09;28.63;;;27.27;;
41221;SDS011;26952;42.884;23.918;2022-08-03T00:15:37;30.50;;;28.98;;
41221;SDS011;26952;42.884;23.918;2022-08-03T00:18:05;29.67;;;28.27;;
41221;SDS011;26952;42.884;23.918;2022-08-03T00:20:31;29.92;;;28.30;;
41221;SDS011;26952;42.884;23.918;2022-08-03T00:22:56;30.35;;;28.85;;
41221;SDS011;26952;42.884;23.918;2022-08-03T00:25:22;32.90;;;31.15;;
41221;SDS011;26952;42.884;23.918;2022-08-03T00:27:47;30.08;;;28.52;;
41221;SDS011;26952;42.884;23.918;2022-08-03T00:30:12;31.02;;;29.52;;
41221;SDS011;26952;42.884;23.918;2022-08-03T00:32:38;30.52;;;29.05;;
41221;SDS011;26952;42.884;23.918;2022-08-03T00:35:04;29.23;;;27.83;;
41221;SDS011;26952;42.884;23.918;2022-08-03T00:37:29;30.73;;;29.10;;
41221;SDS011;26952;42.884;23.918;2022-08-03T00:39:55;28.75;;;27.20;;
41221;SDS011;26952;42.884;23.918;2022-08-03T00:42:20;26.30;;;25.05;;
41221;SDS011;26952;42.884;23.918;2022-08-03T00:44:46;26.33;;;24.73;;
41221;SDS011;26952;42.884;23.918;2022-08-03T00:47:11;22.15;;;21.10;;
41221;SDS011;26952;42.884;23.918;2022-08-03T00:49:37;22.95;;;21.83;;
41221;SDS011;26952;42.884;23.918;2022-08-03T00:52:04;19.45;;;18.50;;
41221;SDS011;26952;42.884;23.918;2022-08-03T00:54:32;17.58;;;16.60;;
41221;SDS011;26952;42.884;23.918;2022-08-03T00:56:58;17.73;;;16.83;;
41221;SDS011;26952;42.884;23.918;2022-08-03T00:59:23;16.48;;;15.65;;
41221;SDS011;26952;42.884;23.918;2022-08-03T01:01:49;16.08;;;15.23;;
41221;SDS011;26952;42.884;23.918;2022-08-03T01:04:14;16.10;;;15.30;;
41221;SDS011;26952;42.884;23.918;2022-08-03T01:06:42;16.23;;;15.32;;
41221;SDS011;26952;42.884;23.918;2022-08-03T01:09:26;15.73;;;14.98;;
41221;SDS011;26952;42.884;23.918;2022-08-03T01:12:06;18.30;;;17.17;;
41221;SDS011;26952;42.884;23.918;2022-08-03T01:14:43;26.13;;;24.88;;
41221;SDS011;26952;42.884;23.918;2022-08-03T01:17:22;32.05;;;30.48;;
41221;SDS011;26952;42.884;23.918;2022-08-03T01:20:11;32.13;;;30.52;;
41221;SDS011;26952;42.884;23.918;2022-08-03T01:30:34;28.75;;;27.35;;
41221;SDS011;26952;42.884;23.918;2022-08-03T01:33:03;25.60;;;24.30;;
41221;SDS011;26952;42.884;23.918;2022-08-03T01:35:38;22.27;;;21.08;;
41221;SDS011;26952;42.884;23.918;2022-08-03T01:38:17;20.35;;;19.30;;
41221;SDS011;26952;42.884;23.918;2022-08-03T01:40:48;21.70;;;20.45;;
41221;SDS011;26952;42.884;23.918;2022-08-03T01:43:18;25.10;;;23.88;;
41221;SDS011;26952;42.884;23.918;2022-08-03T01:45:47;31.00;;;29.42;;
41221;SDS011;26952;42.884;23.918;2022-08-03T01:48:14;34.60;;;32.83;;
41221;SDS011;26952;42.884;23.918;2022-08-03T01:50:41;30.65;;;28.95;;
41221;SDS011;26952;42.884;23.918;2022-08-03T01:53:09;36.10;;;34.00;;
41221;SDS011;26952;42.884;23.918;2022-08-03T01:55:38;38.00;;;36.15;;
41221;SDS011;26952;42.884;23.918;2022-08-03T01:58:04;39.33;;;37.35;;
41221;SDS011;26952;42.884;23.918;2022-08-03T02:00:32;45.95;;;43.67;;
41221;SDS011;26952;42.884;23.918;2022-08-03T02:03:00;56.03;;;53.20;;
41221;SDS011;26952;42.884;23.918;2022-08-03T02:05:28;60.20;;;57.15;;
41221;SDS011;26952;42.884;23.918;2022-08-03T02:07:56;62.03;;;58.95;;
41221;SDS011;26952;42.884;23.918;2022-08-03T02:10:22;65.63;;;62.22;;
41221;SDS011;26952;42.884;23.918;2022-08-03T02:12:51;70.18;;;66.57;;
41221;SDS011;26952;42.884;23.918;2022-08-03T02:15:18;63.78;;;60.58;;
41221;SDS011;26952;42.884;23.918;2022-08-03T02:17:46;76.00;;;72.18;;
41221;SDS011;26952;42.884;23.918;2022-08-03T02:20:12;69.68;;;66.18;;
41221;SDS011;26952;42.884;23.918;2022-08-03T02:22:39;74.10;;;70.45;;
41221;SDS011;26952;42.884;23.918;2022-08-03T02:25:07;68.95;;;65.50;;
41221;SDS011;26952;42.884;23.918;2022-08-03T02:28:00;73.28;;;69.50;;
41221;SDS011;26952;42.884;23.918;2022-08-03T02:30:28;66.55;;;63.15;;
41221;SDS011;26952;42.884;23.918;2022-08-03T02:33:01;67.18;;;63.75;;
41221;SDS011;26952;42.884;23.918;2022-08-03T02:35:29;68.30;;;64.82;;
41221;SDS011;26952;42.884;23.918;2022-08-03T02:37:57;72.07;;;68.43;;
41221;SDS011;26952;42.884;23.918;2022-08-03T02:40:27;69.03;;;65.47;;
41221;SDS011;26952;42.884;23.918;2022-08-03T02:42:54;63.20;;;59.95;;
41221;SDS011;26952;42.884;23.918;2022-08-03T02:45:24;62.03;;;58.85;;
41221;SDS011;26952;42.884;23.918;2022-08-03T02:47:52;61.88;;;58.72;;
41221;SDS011;26952;42.884;23.918;2022-08-03T02:50:22;59.83;;;56.72;;
41221;SDS011;26952;42.884;23.918;2022-08-03T02:52:49;61.85;;;58.67;;
41221;SDS011;26952;42.884;23.918;2022-08-03T02:55:17;60.25;;;57.22;;
41221;SDS011;26952;42.884;23.918;2022-08-03T02:57:45;63.55;;;60.40;;
41221;SDS011;26952;42.884;23.918;2022-08-03T03:00:12;53.28;;;50.63;;
41221;SDS011;26952;42.884;23.918;2022-08-03T03:02:38;53.33;;;50.53;;
41221;SDS011;26952;42.884;23.918;2022-08-03T03:05:05;53.28;;;50.63;;
41221;SDS011;26952;42.884;23.918;2022-08-03T03:07:32;48.03;;;45.58;;
41221;SDS011;26952;42.884;23.918;2022-08-03T03:09:58;42.13;;;40.00;;
41221;SDS011;26952;42.884;23.918;2022-08-03T03:12:25;35.38;;;33.53;;
41221;SDS011;26952;42.884;23.918;2022-08-03T03:14:52;46.95;;;44.50;;
41221;SDS011;26952;42.884;23.918;2022-08-03T03:17:17;76.30;;;72.28;;
41221;SDS011;26952;42.884;23.918;2022-08-03T03:19:44;85.75;;;81.22;;
41221;SDS011;26952;42.884;23.918;2022-08-03T03:22:11;83.63;;;79.32;;
41221;SDS011;26952;42.884;23.918;2022-08-03T03:24:39;84.25;;;79.68;;
41221;SDS011;26952;42.884;23.918;2022-08-03T03:27:06;77.43;;;73.38;;
41221;SDS011;26952;42.884;23.918;2022-08-03T03:29:32;63.10;;;59.72;;
41221;SDS011;26952;42.884;23.918;2022-08-03T03:31:59;61.58;;;58.40;;
41221;SDS011;26952;42.884;23.918;2022-08-03T03:34:25;59.92;;;56.83;;
41221;SDS011;26952;42.884;23.918;2022-08-03T03:36:53;67.90;;;64.22;;
41221;SDS011;26952;42.884;23.918;2022-08-03T03:39:18;67.35;;;63.55;;
41221;SDS011;26952;42.884;23.918;2022-08-03T03:41:44;64.03;;;60.75;;
41221;SDS011;26952;42.884;23.918;2022-08-03T03:44:10;62.15;;;58.83;;
41221;SDS011;26952;42.884;23.918;2022-08-03T03:46:36;59.15;;;56.03;;
41221;SDS011;26952;42.884;23.918;2022-08-03T03:49:02;57.28;;;54.08;;
41221;SDS011;26952;42.884;23.918;2022-08-03T03:51:30;78.47;;;74.38;;
41221;SDS011;26952;42.884;23.918;2022-08-03T03:53:59;90.85;;;86.03;;
41221;SDS011;26952;42.884;23.918;2022-08-03T03:56:26;101.82;;;96.63;;
41221;SDS011;26952;42.884;23.918;2022-08-03T03:58:52;116.10;;;109.88;;
41221;SDS011;26952;42.884;23.918;2022-08-03T04:01:18;130.48;;;122.85;;
41221;SDS011;26952;42.884;23.918;2022-08-03T04:03:44;128.93;;;121.60;;
41221;SDS011;26952;42.884;23.918;2022-08-03T04:06:09;137.18;;;129.40;;
41221;SDS011;26952;42.884;23.918;2022-08-03T04:08:55;142.70;;;134.32;;
41221;SDS011;26952;42.884;23.918;2022-08-03T04:11:40;144.00;;;135.98;;
41221;SDS011;26952;42.884;23.918;2022-08-03T04:16:54;142.45;;;134.15;;
41221;SDS011;26952;42.884;23.918;2022-08-03T04:19:27;143.87;;;135.37;;
41221;SDS011;26952;42.884;23.918;2022-08-03T04:21:59;139.95;;;131.95;;
41221;SDS011;26952;42.884;23.918;2022-08-03T04:24:32;135.45;;;127.88;;
41221;SDS011;26952;42.884;23.918;2022-08-03T04:27:01;117.07;;;110.82;;
41221;SDS011;26952;42.884;23.918;2022-08-03T04:29:28;139.10;;;131.43;;
41221;SDS011;26952;42.884;23.918;2022-08-03T04:31:58;134.77;;;127.13;;
41221;SDS011;26952;42.884;23.918;2022-08-03T04:34:25;128.55;;;121.38;;
41221;SDS011;26952;42.884;23.918;2022-08-03T04:36:52;108.45;;;102.55;;
41221;SDS011;26952;42.884;23.918;2022-08-03T04:39:23;113.95;;;107.93;;
41221;SDS011;26952;42.884;23.918;2022-08-03T04:41:52;109.30;;;103.65;;
41221;SDS011;26952;42.884;23.918;2022-08-03T04:44:20;109.78;;;103.88;;
41221;SDS011;26952;42.884;23.918;2022-08-03T04:46:48;100.70;;;95.13;;
41221;SDS011;26952;42.884;23.918;2022-08-03T04:49:14;104.25;;;98.40;;
41221;SDS011;26952;42.884;23.918;2022-08-03T04:51:40;102.90;;;97.05;;
41221;SDS011;26952;42.884;23.918;2022-08-03T04:54:10;107.05;;;100.60;;
41221;SDS011;26952;42.884;23.918;2022-08-03T04:56:38;116.43;;;109.88;;
41221;SDS011;26952;42.884;23.918;2022-08-03T04:59:05;120.45;;;113.60;;
41221;SDS011;26952;42.884;23.918;2022-08-03T05:01:30;132.18;;;124.80;;
41221;SDS011;26952;42.884;23.918;2022-08-03T05:03:55;119.90;;;113.20;;
41221;SDS011;26952;42.884;23.918;2022-08-03T05:06:21;121.68;;;114.40;;
41221;SDS011;26952;42.884;23.918;2022-08-03T05:08:46;122.43;;;115.22;;
41221;SDS011;26952;42.884;23.918;2022-08-03T05:11:12;106.68;;;100.57;;
41221;SDS011;26952;42.884;23.918;2022-08-03T05:13:37;110.72;;;104.90;;
41221;SDS011;26952;42.884;23.918;2022-08-03T05:16:03;105.25;;;99.85;;
41221;SDS011;26952;42.884;23.918;2022-08-03T05:18:29;97.22;;;91.93;;
41221;SDS011;26952;42.884;23.918;2022-08-03T05:20:54;89.38;;;84.82;;
41221;SDS011;26952;42.884;23.918;2022-08-03T05:23:19;77.18;;;72.90;;
41221;SDS011;26952;42.884;23.918;2022-08-03T05:25:46;72.63;;;68.55;;
41221;SDS011;26952;42.884;23.918;2022-08-03T05:28:11;74.05;;;69.63;;
41221;SDS011;26952;42.884;23.918;2022-08-03T05:30:37;78.97;;;74.35;;
41221;SDS011;26952;42.884;23.918;2022-08-03T05:33:02;77.70;;;73.43;;
41221;SDS011;26952;42.884;23.918;2022-08-03T05:35:28;73.28;;;69.10;;
41221;SDS011;26952;42.884;23.918;2022-08-03T05:37:54;70.07;;;66.32;;
41221;SDS011;26952;42.884;23.918;2022-08-03T05:40:20;71.88;;;68.07;;
41221;SDS011;26952;42.884;23.918;2022-08-03T05:42:45;68.18;;;64.57;;
41221;SDS011;26952;42.884;23.918;2022-08-03T05:45:11;74.18;;;70.07;;
41221;SDS011;26952;42.884;23.918;2022-08-03T05:47:38;79.88;;;75.70;;
41221;SDS011;26952;42.884;23.918;2022-08-03T05:50:04;77.90;;;73.85;;
41221;SDS011;26952;42.884;23.918;2022-08-03T05:52:30;77.38;;;73.28;;
41221;SDS011;26952;42.884;23.918;2022-08-03T05:54:55;76.65;;;72.63;;
41221;SDS011;26952;42.884;23.918;2022-08-03T05:57:21;78.70;;;74.55;;
41221;SDS011;26952;42.884;23.918;2022-08-03T05:59:46;73.55;;;69.80;;
41221;SDS011;26952;42.884;23.918;2022-08-03T06:02:11;80.18;;;76.10;;
41221;SDS011;26952;42.884;23.918;2022-08-03T06:04:37;90.32;;;85.35;;
41221;SDS011;26952;42.884;23.918;2022-08-03T06:07:02;87.53;;;82.70;;
41221;SDS011;26952;42.884;23.918;2022-08-03T06:09:27;80.53;;;76.15;;
41221;SDS011;26952;42.884;23.918;2022-08-03T06:11:53;80.07;;;75.53;;
41221;SDS011;26952;42.884;23.918;2022-08-03T06:14:19;76.07;;;72.00;;
41221;SDS011;26952;42.884;23.918;2022-08-03T06:16:44;80.88;;;76.50;;
41221;SDS011;26952;42.884;23.918;2022-08-03T06:19:09;80.55;;;76.20;;
41221;SDS011;26952;42.884;23.918;2022-08-03T06:21:35;70.30;;;66.57;;
41221;SDS011;26952;42.884;23.918;2022-08-03T06:24:00;74.20;;;70.18;;
41221;SDS011;26952;42.884;23.918;2022-08-03T06:26:26;77.97;;;73.72;;
41221;SDS011;26952;42.884;23.918;2022-08-03T06:28:52;68.75;;;65.20;;
41221;SDS011;26952;42.884;23.918;2022-08-03T06:31:18;69.68;;;66.13;;
41221;SDS011;26952;42.884;23.918;2022-08-03T06:33:44;77.75;;;73.60;;
41221;SDS011;26952;42.884;23.918;2022-08-03T06:36:09;80.78;;;76.43;;
41221;SDS011;26952;42.884;23.918;2022-08-03T06:38:35;83.45;;;78.93;;
41221;SDS011;26952;42.884;23.918;2022-08-03T06:52:07;85.03;;;80.50;;
41221;SDS011;26952;42.884;23.918;2022-08-03T06:54:33;102.97;;;97.30;;
41221;SDS011;26952;42.884;23.918;2022-08-03T06:56:59;112.93;;;106.88;;
41221;SDS011;26952;42.884;23.918;2022-08-03T06:59:24;115.65;;;109.28;;
41221;SDS011;26952;42.884;23.918;2022-08-03T07:01:50;116.60;;;110.18;;
41221;SDS011;26952;42.884;23.918;2022-08-03T07:04:15;112.70;;;106.63;;
41221;SDS011;26952;42.884;23.918;2022-08-03T07:06:40;111.28;;;105.38;;
41221;SDS011;26952;42.884;23.918;2022-08-03T07:09:06;114.63;;;108.43;;
41221;SDS011;26952;42.884;23.918;2022-08-03T07:11:31;119.05;;;112.75;;
41221;SDS011;26952;42.884;23.918;2022-08-03T07:13:57;115.07;;;108.95;;
41221;SDS011;26952;42.884;23.918;2022-08-03T07:16:22;114.45;;;108.15;;
41221;SDS011;26952;42.884;23.918;2022-08-03T07:18:48;117.30;;;110.57;;
41221;SDS011;26952;42.884;23.918;2022-08-03T07:21:13;125.80;;;118.50;;
41221;SDS011;26952;42.884;23.918;2022-08-03T07:23:40;120.80;;;113.85;;
41221;SDS011;26952;42.884;23.918;2022-08-03T07:26:06;125.30;;;118.22;;
41221;SDS011;26952;42.884;23.918;2022-08-03T07:28:31;115.95;;;109.55;;
41221;SDS011;26952;42.884;23.918;2022-08-03T07:30:57;126.07;;;119.07;;
41221;SDS011;26952;42.884;23.918;2022-08-03T07:33:23;119.72;;;113.15;;
41221;SDS011;26952;42.884;23.918;2022-08-03T07:35:48;119.28;;;112.35;;
41221;SDS011;26952;42.884;23.918;2022-08-03T07:38:14;124.47;;;117.28;;
41221;SDS011;26952;42.884;23.918;2022-08-03T07:40:40;115.93;;;108.88;;
41221;SDS011;26952;42.884;23.918;2022-08-03T07:43:05;118.70;;;111.53;;
41221;SDS011;26952;42.884;23.918;2022-08-03T07:45:30;137.77;;;129.45;;
41221;SDS011;26952;42.884;23.918;2022-08-03T07:47:56;150.90;;;142.13;;
41221;SDS011;26952;42.884;23.918;2022-08-03T07:50:21;158.48;;;149.05;;
41221;SDS011;26952;42.884;23.918;2022-08-03T07:52:47;160.25;;;150.90;;
41221;SDS011;26952;42.884;23.918;2022-08-03T07:55:13;166.07;;;156.35;;
41221;SDS011;26952;42.884;23.918;2022-08-03T07:57:39;144.57;;;136.15;;
41221;SDS011;26952;42.884;23.918;2022-08-03T08:00:10;142.43;;;134.13;;
41221;SDS011;26952;42.884;23.918;2022-08-03T08:02:41;135.95;;;128.00;;
41221;SDS011;26952;42.884;23.918;2022-08-03T08:05:07;136.88;;;129.00;;
41221;SDS011;26952;42.884;23.918;2022-08-03T08:07:35;132.35;;;124.78;;
41221;SDS011;26952;42.884;23.918;2022-08-03T08:10:01;133.20;;;125.78;;
41221;SDS011;26952;42.884;23.918;2022-08-03T08:12:27;139.77;;;132.25;;
41221;SDS011;26952;42.884;23.918;2022-08-03T08:14:53;136.52;;;128.85;;
41221;SDS011;26952;42.884;23.918;2022-08-03T08:17:18;147.57;;;139.48;;
41221;SDS011;26952;42.884;23.918;2022-08-03T08:19:44;135.75;;;128.23;;
41221;SDS011;26952;42.884;23.918;2022-08-03T08:22:09;105.68;;;100.22;;
41221;SDS011;26952;42.884;23.918;2022-08-03T08:24:35;93.47;;;88.50;;
41221;SDS011;26952;42.884;23.918;2022-08-03T08:27:00;77.38;;;73.32;;
41221;SDS011;26952;42.884;23.918;2022-08-03T08:29:25;91.07;;;86.15;;
41221;SDS011;26952;42.884;23.918;2022-08-03T08:31:51;99.13;;;93.93;;
41221;SDS011;26952;42.884;23.918;2022-08-03T08:34:16;96.50;;;91.38;;
41221;SDS011;26952;42.884;23.918;2022-08-03T08:36:42;104.65;;;99.07;;
41221;SDS011;26952;42.884;23.918;2022-08-03T08:39:07;97.50;;;92.38;;
41221;SDS011;26952;42.884;23.918;2022-08-03T08:41:32;105.28;;;99.60;;
41221;SDS011;26952;42.884;23.918;2022-08-03T08:43:59;93.90;;;88.97;;
41221;SDS011;26952;42.884;23.918;2022-08-03T08:46:31;100.30;;;94.72;;
41221;SDS011;26952;42.884;23.918;2022-08-03T08:48:57;110.30;;;104.47;;
41221;SDS011;26952;42.884;23.918;2022-08-03T08:51:27;109.88;;;104.13;;
41221;SDS011;26952;42.884;23.918;2022-08-03T08:54:00;114.22;;;107.85;;
41221;SDS011;26952;42.884;23.918;2022-08-03T08:56:27;105.80;;;99.88;;
41221;SDS011;26952;42.884;23.918;2022-08-03T08:58:56;108.88;;;102.90;;
41221;SDS011;26952;42.884;23.918;2022-08-03T09:01:23;103.18;;;97.63;;
41221;SDS011;26952;42.884;23.918;2022-08-03T09:03:49;84.28;;;79.90;;
41221;SDS011;26952;42.884;23.918;2022-08-03T09:06:15;90.07;;;85.13;;
41221;SDS011;26952;42.884;23.918;2022-08-03T09:08:40;92.70;;;87.57;;
41221;SDS011;26952;42.884;23.918;2022-08-03T09:11:06;87.18;;;82.32;;
41221;SDS011;26952;42.884;23.918;2022-08-03T09:13:32;102.78;;;97.18;;
41221;SDS011;26952;42.884;23.918;2022-08-03T09:16:12;115.13;;;108.95;;
41221;SDS011;26952;42.884;23.918;2022-08-03T09:18:43;120.35;;;114.07;;
41221;SDS011;26952;42.884;23.918;2022-08-03T09:21:11;115.07;;;109.25;;
41221;SDS011;26952;42.884;23.918;2022-08-03T09:23:46;116.68;;;110.13;;
41221;SDS011;26952;42.884;23.918;2022-08-03T09:26:26;117.22;;;110.68;;
41221;SDS011;26952;42.884;23.918;2022-08-03T09:31:35;152.80;;;144.10;;
41221;SDS011;26952;42.884;23.918;2022-08-03T09:34:03;139.27;;;131.38;;
41221;SDS011;26952;42.884;23.918;2022-08-03T09:39:00;130.98;;;123.53;;
41221;SDS011;26952;42.884;23.918;2022-08-03T09:41:29;131.90;;;124.45;;
41221;SDS011;26952;42.884;23.918;2022-08-03T09:43:55;126.15;;;119.15;;
41221;SDS011;26952;42.884;23.918;2022-08-03T09:46:21;94.13;;;89.28;;
41221;SDS011;26952;42.884;23.918;2022-08-03T09:48:46;87.10;;;82.50;;
41221;SDS011;26952;42.884;23.918;2022-08-03T09:51:12;90.32;;;85.18;;
41221;SDS011;26952;42.884;23.918;2022-08-03T09:53:45;101.88;;;96.10;;
41221;SDS011;26952;42.884;23.918;2022-08-03T09:56:11;98.35;;;92.63;;
41221;SDS011;26952;42.884;23.918;2022-08-03T09:58:46;101.32;;;95.80;;
41221;SDS011;26952;42.884;23.918;2022-08-03T10:01:11;117.88;;;111.22;;
41221;SDS011;26952;42.884;23.918;2022-08-03T10:03:38;123.68;;;116.43;;
41221;SDS011;26952;42.884;23.918;2022-08-03T10:06:17;119.00;;;112.13;;
41221;SDS011;26952;42.884;23.918;2022-08-03T10:09:03;81.63;;;77.35;;
41221;SDS011;26952;42.884;23.918;2022-08-03T10:11:29;120.70;;;113.97;;
41221;SDS011;26952;42.884;23.918;2022-08-03T10:13:55;130.55;;;123.40;;
41221;SDS011;26952;42.884;23.918;2022-08-03T10:16:20;121.07;;;114.53;;
41221;SDS011;26952;42.884;23.918;2022-08-03T10:18:46;128.88;;;121.68;;
41221;SDS011;26952;42.884;23.918;2022-08-03T10:21:12;111.85;;;105.88;;
41221;SDS011;26952;42.884;23.918;2022-08-03T10:23:41;116.65;;;109.93;;
41221;SDS011;26952;42.884;23.918;2022-08-03T10:26:07;115.40;;;109.22;;
41221;SDS011;26952;42.884;23.918;2022-08-03T10:28:39;112.88;;;106.85;;
41221;SDS011;26952;42.884;23.918;2022-08-03T10:31:11;111.50;;;105.47;;
41221;SDS011;26952;42.884;23.918;2022-08-03T10:33:40;125.70;;;118.85;;
41221;SDS011;26952;42.884;23.918;2022-08-03T10:36:07;117.10;;;110.50;;
41221;SDS011;26952;42.884;23.918;2022-08-03T10:38:42;101.03;;;95.47;;
41221;SDS011;26952;42.884;23.918;2022-08-03T10:41:11;108.13;;;102.22;;
41221;SDS011;26952;42.884;23.918;2022-08-03T10:43:49;118.50;;;111.88;;
41221;SDS011;26952;42.884;23.918;2022-08-03T10:46:20;120.28;;;113.82;;
41221;SDS011;26952;42.884;23.918;2022-08-03T10:48:47;111.78;;;105.60;;
41221;SDS011;26952;42.884;23.918;2022-08-03T10:51:14;88.05;;;83.28;;
41221;SDS011;26952;42.884;23.918;2022-08-03T10:53:41;49.42;;;46.72;;
41221;SDS011;26952;42.884;23.918;2022-08-03T11:02:11;51.25;;;48.72;;
41221;SDS011;26952;42.884;23.918;2022-08-03T11:04:38;58.83;;;55.95;;
41221;SDS011;26952;42.884;23.918;2022-08-03T11:07:20;61.83;;;58.58;;
41221;SDS011;26952;42.884;23.918;2022-08-03T11:09:48;52.95;;;50.42;;
41221;SDS011;26952;42.884;23.918;2022-08-03T11:12:22;54.65;;;51.92;;
41221;SDS011;26952;42.884;23.918;2022-08-03T11:14:48;58.75;;;55.83;;
41221;SDS011;26952;42.884;23.918;2022-08-03T11:17:14;51.92;;;49.28;;
41221;SDS011;26952;42.884;23.918;2022-08-03T11:19:46;50.08;;;47.28;;
41221;SDS011;26952;42.884;23.918;2022-08-03T11:22:13;47.90;;;45.50;;
41221;SDS011;26952;42.884;23.918;2022-08-03T11:40:37;83.13;;;78.68;;
41221;SDS011;26952;42.884;23.918;2022-08-03T11:45:57;71.00;;;67.18;;
41221;SDS011;26952;42.884;23.918;2022-08-03T11:48:25;78.72;;;74.40;;
41221;SDS011;26952;42.884;23.918;2022-08-03T11:50:57;77.95;;;73.63;;
41221;SDS011;26952;42.884;23.918;2022-08-03T11:53:24;76.38;;;72.30;;
41221;SDS011;26952;42.884;23.918;2022-08-03T11:55:50;71.13;;;66.97;;
41221;SDS011;26952;42.884;23.918;2022-08-03T11:58:20;68.13;;;64.38;;
41221;SDS011;26952;42.884;23.918;2022-08-03T12:03:13;49.60;;;46.83;;
41221;SDS011;26952;42.884;23.918;2022-08-03T12:08:37;46.05;;;43.58;;
41221;SDS011;26952;42.884;23.918;2022-08-03T12:11:03;44.15;;;41.75;;
41221;SDS011;26952;42.884;23.918;2022-08-03T12:16:17;55.13;;;51.88;;
41221;SDS011;26952;42.884;23.918;2022-08-03T12:19:00;56.22;;;53.03;;
41221;SDS011;26952;42.884;23.918;2022-08-03T12:23:56;48.05;;;45.30;;
41221;SDS011;26952;42.884;23.918;2022-08-03T12:26:26;58.95;;;55.65;;
41221;SDS011;26952;42.884;23.918;2022-08-03T12:28:53;61.25;;;57.80;;
41221;SDS011;26952;42.884;23.918;2022-08-03T12:31:18;63.00;;;59.47;;
41221;SDS011;26952;42.884;23.918;2022-08-03T12:36:22;74.85;;;70.60;;
41221;SDS011;26952;42.884;23.918;2022-08-03T12:38:54;71.28;;;67.45;;
41221;SDS011;26952;42.884;23.918;2022-08-03T12:41:29;74.07;;;69.82;;
41221;SDS011;26952;42.884;23.918;2022-08-03T12:43:57;90.93;;;85.93;;
41221;SDS011;26952;42.884;23.918;2022-08-03T12:46:28;95.45;;;90.40;;
41221;SDS011;26952;42.884;23.918;2022-08-03T12:49:06;76.80;;;72.55;;
41221;SDS011;26952;42.884;23.918;2022-08-03T12:51:34;71.38;;;67.47;;
41221;SDS011;26952;42.884;23.918;2022-08-03T12:54:24;71.97;;;68.00;;
41221;SDS011;26952;42.884;23.918;2022-08-03T12:59:29;45.20;;;42.67;;
41221;SDS011;26952;42.884;23.918;2022-08-03T13:01:55;44.40;;;42.03;;
41221;SDS011;26952;42.884;23.918;2022-08-03T13:04:27;50.53;;;47.70;;
41221;SDS011;26952;42.884;23.918;2022-08-03T13:06:59;43.38;;;40.83;;
41221;SDS011;26952;42.884;23.918;2022-08-03T13:09:26;42.08;;;39.97;;
41221;SDS011;26952;42.884;23.918;2022-08-03T13:14:32;44.65;;;42.50;;
41221;SDS011;26952;42.884;23.918;2022-08-03T13:16:57;45.83;;;43.58;;
41221;SDS011;26952;42.884;23.918;2022-08-03T13:19:23;44.80;;;42.42;;
41221;SDS011;26952;42.884;23.918;2022-08-03T13:21:48;41.78;;;39.65;;
41221;SDS011;26952;42.884;23.918;2022-08-03T13:24:14;42.17;;;39.88;;
41221;SDS011;26952;42.884;23.918;2022-08-03T13:26:39;48.72;;;46.15;;
41221;SDS011;26952;42.884;23.918;2022-08-03T13:29:05;49.35;;;46.90;;
41221;SDS011;26952;42.884;23.918;2022-08-03T13:31:30;49.90;;;47.47;;
41221;SDS011;26952;42.884;23.918;2022-08-03T13:33:56;51.45;;;48.75;;
41221;SDS011;26952;42.884;23.918;2022-08-03T13:36:21;66.72;;;63.13;;
41221;SDS011;26952;42.884;23.918;2022-08-03T13:38:48;64.32;;;60.78;;
41221;SDS011;26952;42.884;23.918;2022-08-03T13:41:14;71.32;;;67.38;;
41221;SDS011;26952;42.884;23.918;2022-08-03T13:43:39;78.43;;;74.18;;
41221;SDS011;26952;42.884;23.918;2022-08-03T13:46:04;85.28;;;80.70;;
41221;SDS011;26952;42.884;23.918;2022-08-03T13:48:30;88.18;;;83.35;;
41221;SDS011;26952;42.884;23.918;2022-08-03T13:50:55;65.97;;;62.40;;
41221;SDS011;26952;42.884;23.918;2022-08-03T13:53:21;62.53;;;59.10;;
41221;SDS011;26952;42.884;23.918;2022-08-03T13:55:46;79.13;;;74.70;;
41221;SDS011;26952;42.884;23.918;2022-08-03T13:58:11;80.25;;;75.90;;
41221;SDS011;26952;42.884;23.918;2022-08-03T14:00:37;74.30;;;70.15;;
41221;SDS011;26952;42.884;23.918;2022-08-03T14:03:03;67.70;;;64.03;;
41221;SDS011;26952;42.884;23.918;2022-08-03T14:05:29;66.20;;;62.40;;
41221;SDS011;26952;42.884;23.918;2022-08-03T14:07:55;77.10;;;72.70;;
41221;SDS011;26952;42.884;23.918;2022-08-03T14:10:21;76.68;;;72.60;;
41221;SDS011;26952;42.884;23.918;2022-08-03T14:16:09;84.28;;;79.68;;
41221;SDS011;26952;42.884;23.918;2022-08-03T14:18:34;79.60;;;75.00;;
41221;SDS011;26952;42.884;23.918;2022-08-03T14:21:00;68.13;;;64.47;;
41221;SDS011;26952;42.884;23.918;2022-08-03T14:23:26;61.85;;;58.63;;
41221;SDS011;26952;42.884;23.918;2022-08-03T14:25:52;62.63;;;59.40;;
41221;SDS011;26952;42.884;23.918;2022-08-03T14:28:18;65.00;;;61.63;;
41221;SDS011;26952;42.884;23.918;2022-08-03T14:30:47;57.28;;;54.35;;
41221;SDS011;26952;42.884;23.918;2022-08-03T14:33:13;61.72;;;58.40;;
41221;SDS011;26952;42.884;23.918;2022-08-03T14:35:39;65.13;;;61.60;;
41221;SDS011;26952;42.884;23.918;2022-08-03T14:38:04;59.05;;;55.92;;
41221;SDS011;26952;42.884;23.918;2022-08-03T14:40:30;62.00;;;58.78;;
41221;SDS011;26952;42.884;23.918;2022-08-03T14:42:56;59.20;;;56.22;;
41221;SDS011;26952;42.884;23.918;2022-08-03T14:45:21;51.33;;;48.45;;
41221;SDS011;26952;42.884;23.918;2022-08-03T14:47:47;35.63;;;33.92;;
41221;SDS011;26952;42.884;23.918;2022-08-03T14:50:12;32.28;;;30.70;;
41221;SDS011;26952;42.884;23.918;2022-08-03T14:52:38;36.88;;;35.08;;
41221;SDS011;26952;42.884;23.918;2022-08-03T14:55:03;32.92;;;31.13;;
41221;SDS011;26952;42.884;23.918;2022-08-03T14:57:29;32.90;;;31.20;;
41221;SDS011;26952;42.884;23.918;2022-08-03T14:59:54;30.10;;;28.58;;
41221;SDS011;26952;42.884;23.918;2022-08-03T15:02:21;33.00;;;31.15;;
41221;SDS011;26952;42.884;23.918;2022-08-03T15:04:46;32.97;;;31.30;;
41221;SDS011;26952;42.884;23.918;2022-08-03T15:07:11;33.25;;;31.25;;
41221;SDS011;26952;42.884;23.918;2022-08-03T15:09:37;31.33;;;29.70;;
41221;SDS011;26952;42.884;23.918;2022-08-03T15:12:03;32.28;;;30.60;;
41221;SDS011;26952;42.884;23.918;2022-08-03T15:14:30;35.88;;;34.03;;
41221;SDS011;26952;42.884;23.918;2022-08-03T15:16:56;36.05;;;34.25;;